Flight Track Log - Related Links

Times and Time Zones

All times are in EDT time to prevent confusion due to time zone crossing. See the SKW5641 flight status page for this flight to view local times or setup timezone preferences in your user account.

Time Position Orientation Groundspeed Altitude Reporting Facility
EDT Latitude Longitude Course Direction KTS MPH feet Rate Location/Type
Thu 06:29:51 PM 34.1794 -118.3569 54° Northeast 167 192 1,600  Level Los Angeles Center
Thu 06:30:53 PM 34.1647 -118.4106 252° West 205 236 3,500 1,887 Climbing Los Angeles Center
Thu 06:31:55 PM 34.2217 -118.4406 336° Northwest 224 258 5,500 1,839 Climbing Los Angeles Center
Thu 06:32:57 PM 34.2936 -118.4544 351° North 266 306 7,300 2,032 Climbing Los Angeles Center
Thu 06:33:00 PM 34.4025 -118.4116 59° Northeast  Level FlightAware Approximate
Thu 06:33:59 PM 34.3717 -118.4594 357° North 281 323 9,700  Level Los Angeles Center
Thu 06:34:00 PM 34.4650 -118.2942 51° Northeast  Level FlightAware Approximate
Thu 06:35:00 PM 34.5381 -118.1866 54° Northeast  Level FlightAware Approximate
Thu 06:35:01 PM 34.4372 -118.3733 47° Northeast 292 336 11,800  Level Los Angeles Center
Thu 06:36:03 PM 34.4897 -118.2917 52° Northeast 308 354 13,100 1,306 Climbing Los Angeles Center
Thu 06:37:05 PM 34.5450 -118.2031 53° Northeast 327 376 14,500 1,355 Climbing Los Angeles Center
Thu 06:38:07 PM 34.5769 -118.0811 72° East 347 399 15,900 1,355 Climbing Los Angeles Center
Thu 06:39:09 PM 34.6078 -117.9678 72° East 355 409 17,300 1,143 Climbing Los Angeles Center
Thu 06:40:13 PM 34.6375 -117.8514 73° East 361 415 18,300 1,056 Climbing Los Angeles Center
Thu 06:41:14 PM 34.6689 -117.7322 72° East 369 425 19,500 1,122 Climbing Los Angeles Center
Thu 06:42:16 PM 34.6989 -117.6114 73° East 375 432 20,600 1,065 Climbing Los Angeles Center
Thu 06:43:18 PM 34.7372 -117.4631 73° East 385 443 21,700 871 Climbing Los Angeles Center
Thu 06:44:20 PM 34.7633 -117.3625 72° East 392 451 22,400 823 Climbing Los Angeles Center
Thu 06:45:22 PM 34.8028 -117.2097 73° East 397 457 23,400 871 Climbing Los Angeles Center
Thu 06:46:24 PM 34.8350 -117.0800 73° East 402 463 24,200 774 Climbing Los Angeles Center
Thu 06:47:26 PM 34.8683 -116.9492 73° East 407 468 25,000 706 Climbing Los Angeles Center
Thu 06:48:40 PM 34.9506 -116.8222 52° Northeast 399 459 25,800 657 Climbing Los Angeles Center
Thu 06:49:43 PM 35.0389 -116.6956 50° Northeast 408 470 26,500 576 Climbing Los Angeles Center
Thu 06:50:45 PM 35.1125 -116.5872 50° Northeast 413 475 27,000 581 Climbing Los Angeles Center
Thu 06:51:47 PM 35.1883 -116.4778 50° Northeast 421 484 27,700 532 Climbing Los Angeles Center
Thu 06:52:49 PM 35.2656 -116.3692 49° Northeast 423 487 28,100 484 Climbing Los Angeles Center
Thu 06:53:51 PM 35.3561 -116.2364 50° Northeast 425 489 28,700 484 Climbing Los Angeles Center
Thu 06:54:53 PM 35.4161 -116.1453 51° Northeast 429 494 29,100 394 Climbing Los Angeles Center
Thu 06:56:08 PM 35.5097 -116.0117 49° Northeast 432 497 29,600 438 Climbing Los Angeles Center
Thu 06:57:10 PM 35.6050 -115.8711 50° Northeast 434 499 30,100 532 Climbing Los Angeles Center
Thu 06:58:12 PM 35.6819 -115.7561 51° Northeast 436 502 30,700 484 Climbing Los Angeles Center
Thu 06:59:14 PM 35.7731 -115.6200 50° Northeast 433 498 31,100 387 Climbing Los Angeles Center
Thu 07:00:16 PM 35.8503 -115.5053 50° Northeast 437 503 31,500 435 Climbing Los Angeles Center
Thu 07:01:18 PM 35.9256 -115.3936 50° Northeast 430 495 32,000 528 Climbing Los Angeles Center
Thu 07:02:21 PM 36.0003 -115.2811 51° Northeast 429 494 32,600 384 Climbing Los Angeles Center
Thu 07:03:23 PM 36.0728 -115.1667 52° Northeast 427 491 32,800 194 Climbing Los Angeles Center
Thu 07:04:25 PM 36.1336 -115.0033 65° Northeast 436 502 33,000 65 Climbing Los Angeles Center
Thu 07:06:29 PM 36.2325 -114.7225 66° East 450 518 33,000  Level Los Angeles Center
Thu 07:07:31 PM 36.2836 -114.5783 66° East 456 525 33,000  Level Los Angeles Center
Thu 07:08:46 PM 36.3342 -114.4350 66° East 455 524 33,000  Level Los Angeles Center
Thu 07:09:48 PM 36.4033 -114.2336 67° East 454 522 33,000  Level Los Angeles Center
Thu 07:10:50 PM 36.4536 -114.0897 66° East 455 524 33,000  Level Los Angeles Center
Thu 07:11:53 PM 36.5028 -113.9467 67° East 451 519 33,000  Level Los Angeles Center
Thu 07:12:54 PM 36.5506 -113.8058 67° East 454 522 33,000  Level Los Angeles Center
Thu 07:13:56 PM 36.5994 -113.6628 67° East 452 520 33,000  Level Los Angeles Center
Thu 07:14:58 PM 36.6578 -113.4908 67° East 451 519 33,000  Level Los Angeles Center
Thu 07:16:00 PM 36.7058 -113.3472 67° East 451 519 33,000  Level Los Angeles Center
Thu 07:17:02 PM 36.7533 -113.2033 68° East 451 519 33,000  Level Los Angeles Center
Thu 07:18:05 PM 36.8003 -113.0603 68° East 450 518 33,000  Level Los Angeles Center
Thu 07:19:07 PM 36.8483 -112.9175 67° East 449 517 33,000  Level Los Angeles Center
Thu 07:20:09 PM 36.9047 -112.7458 68° East 449 517 33,000  Level Los Angeles Center
Thu 07:21:11 PM 36.9522 -112.6031 67° East 449 517 33,000  Level Los Angeles Center
Thu 07:22:49 PM 37.0278 -112.3728 68° East 452 520 33,000  Level Denver Center
Thu 07:23:15 PM 37.0464 -112.3144 68° East 451 519 33,000  Level Los Angeles Center
Thu 07:24:53 PM 37.1222 -112.0836 68° East 452 520 33,000  Level Denver Center
Thu 07:25:32 PM 37.1583 -111.9675 69° East 452 520 33,000  Level Los Angeles Center
Thu 07:26:34 PM 37.2036 -111.8239 68° East 448 516 33,000  Level Los Angeles Center
Thu 07:26:57 PM 37.2253 -111.7650 65° Northeast 451 519 33,000  Level Denver Center
Thu 07:27:59 PM 37.2675 -111.6222 70° East 444 511 33,000  Level Denver Center
Thu 07:29:13 PM 37.3133 -111.4772 68° East 450 518 33,000  Level Denver Center
Thu 07:30:16 PM 37.3675 -111.3025 69° East 450 518 33,000  Level Denver Center
Thu 07:31:18 PM 37.4136 -111.1567 68° East 451 519 33,000  Level Denver Center
Thu 07:32:20 PM 37.4683 -110.9819 68° East 451 519 33,000  Level Denver Center
Thu 07:33:22 PM 37.5128 -110.8367 69° East 447 514 33,000  Level Denver Center
Thu 07:34:24 PM 37.5581 -110.6892 69° East 453 521 33,000  Level Denver Center
Thu 07:35:26 PM 37.6028 -110.5422 69° East 451 519 33,000  Level Denver Center
Thu 07:36:28 PM 37.6542 -110.3736 69° East 452 520 33,000  Level Denver Center
Thu 07:37:30 PM 37.6969 -110.2322 69° East 451 519 33,000  Level Denver Center
Thu 07:38:32 PM 37.7467 -110.0672 69° East 450 518 33,000  Level Denver Center
Thu 07:39:34 PM 37.7881 -109.9275 69° East 446 513 33,000  Level Denver Center
Thu 07:40:36 PM 37.8369 -109.7625 69° East 447 514 33,000  Level Denver Center
Thu 07:41:38 PM 37.8778 -109.6206 70° East 448 516 33,000  Level Denver Center
Thu 07:42:40 PM 37.9200 -109.4814 69° East 444 511 33,000  Level Denver Center
Thu 07:43:42 PM 37.9675 -109.3158 70° East 447 514 33,000  Level Denver Center
Thu 07:44:44 PM 38.0075 -109.1756 70° East 443 510 33,000  Level Denver Center
Thu 07:45:46 PM 38.0542 -109.0136 70° East 445 512 33,000  Level Denver Center
Thu 07:46:48 PM 38.0942 -108.8700 70° East 449 517 33,000  Level Denver Center
Thu 07:47:50 PM 38.1408 -108.7075 70° East 442 509 33,000  Level Denver Center
Thu 07:48:52 PM 38.1739 -108.5917 70° East 438 504 33,000  Level Denver Center
Thu 07:49:54 PM 38.2258 -108.4067 70° East 438 504 33,000  Level Denver Center
Thu 07:50:57 PM 38.2653 -108.2703 70° East 432 497 33,000  Level Denver Center
Thu 07:51:59 PM 38.3100 -108.1078 71° East 435 501 33,000  Level Denver Center
Thu 07:53:01 PM 38.3492 -107.9717 70° East 432 497 33,000  Level Denver Center
Thu 07:54:03 PM 38.3928 -107.8103 71° East 431 496 33,000  Level Denver Center
Thu 07:55:05 PM 38.4303 -107.6733 71° East 431 496 33,000  Level Denver Center
Thu 07:56:07 PM 38.4853 -107.5217 65° Northeast 422 486 33,000  Level Denver Center
Thu 07:57:09 PM 38.5408 -107.3992 60° Northeast 418 481 33,000  Level Denver Center
Thu 07:58:11 PM 38.6036 -107.2556 61° Northeast 416 479 33,000  Level Denver Center
Thu 07:59:13 PM 38.6603 -107.1294 60° Northeast 417 480 33,000  Level Denver Center
Thu 08:00:16 PM 38.7067 -107.0264 60° Northeast 417 480 33,000  Level Denver Center
Thu 08:01:18 PM 38.7744 -106.8711 61° Northeast 418 481 33,000  Level Denver Center
Thu 08:02:21 PM 38.8314 -106.7422 60° Northeast 418 481 33,000 -387 Level Denver Center
Thu 08:03:22 PM 38.8969 -106.5956 60° Northeast 420 483 32,200 -1,073 Descending Denver Center
Thu 08:04:24 PM 38.9681 -106.4422 59° Northeast 444 511 30,800 -1,200 Descending Denver Center
Thu 08:05:27 PM 39.0278 -106.3108 60° Northeast 446 513 29,700 -1,161 Descending Denver Center
Thu 08:06:28 PM 39.0967 -106.1611 59° Northeast 438 504 28,400 -1,024 Descending Denver Center
Thu 08:07:30 PM 39.1536 -106.0322 60° Northeast 412 474 27,600 -1,306 Descending Denver Center
Thu 08:08:32 PM 39.2069 -105.9108 60° Northeast 389 448 25,700 -1,790 Descending Denver Center
Thu 08:09:34 PM 39.2583 -105.7933 61° Northeast 376 433 23,900 -1,742 Descending Denver Center
Thu 08:10:36 PM 39.3081 -105.6811 60° Northeast 360 414 22,100 -1,839 Descending Denver Center
Thu 08:11:38 PM 39.3553 -105.5742 60° Northeast 344 396 20,100 -1,694 Descending Denver Center
Thu 08:12:40 PM 39.3983 -105.4653 63° Northeast 313 360 18,600 -1,161 Descending Denver Center
Thu 08:13:42 PM 39.4011 -105.3550 88° East 298 343 17,700 -919 Descending Denver Center
Thu 08:14:44 PM 39.4056 -105.2411 87° East 297 342 16,700 -1,065 Descending Denver Center
Thu 08:15:46 PM 39.4097 -105.1494 87° East 262 302 15,500 -1,210 Descending Denver Center
Thu 08:16:48 PM 39.4142 -105.0561 86° East 245 282 14,200 -1,065 Descending Denver Center
Thu 08:17:50 PM 39.4186 -104.9631 86° East 259 298 13,300 -968 Descending Denver Center
Thu 08:18:52 PM 39.4325 -104.8628 80° East 270 311 12,200 -1,065 Descending Denver Center
Thu 08:19:54 PM 39.4714 -104.7900 55° Northeast 248 285 11,100 -823 Descending Denver Center
Thu 08:20:56 PM 39.5139 -104.7231 51° Northeast 241 277 10,500 -629 Descending Denver Center
Thu 08:21:58 PM 39.5744 -104.6767 31° Northeast 235 270 9,800 -677 Descending Denver Center
Thu 08:23:00 PM 39.6369 -104.6636 North 229 264 9,100 -774 Descending Denver Center
Thu 08:24:02 PM 39.7033 -104.6622 North 221 254 8,200 -1,024 Descending Denver Center
Thu 08:25:03 PM 39.7528 -104.6619 360° North 183 211 7,000 -1,073 Descending Denver Center
Thu 08:26:05 PM 39.7989 -104.6611 North 154 177 6,000 -968 Descending Denver Center

Login

Don't have an account? Register now (free) for customized features, flight alerts, and more!